Time;durP1;ratioP1;P1;durP2;ratioP2;P2;SDS_P1;SDS_P2;PMS_P1;PMS_P2;Temp;Humidity;BMP_temperature;BMP_pressure;BME280_temperature;BME280_humidity;BME280_pressure;Samples;Min_cycle;Max_cycle;Signal;HPM_P1;HPM_P2
2022/06/23 00:03:57;;;;;;;7.30;4.22;;;;;;;16.11;76.25;99872.93;2743308;85;21033;-96
2022/06/23 00:08:00;;;;;;;5.22;3.83;;;;;;;16.25;76.08;99878.08;2760492;85;21044;-96
2022/06/23 00:12:37;;;;;;;4.53;3.27;;;;;;;16.19;76.99;99886.83;2772573;85;21083;-94
2022/06/23 00:16:38;;;;;;;6.03;3.42;;;;;;;16.08;77.36;99892.05;2764196;85;21017;-93
2022/06/23 00:20:51;;;;;;;4.50;3.65;;;;;;;16.01;77.17;99888.37;2764411;85;21092;-91
2022/06/23 00:24:56;;;;;;;4.60;4.20;;;;;;;15.99;77.50;99891.23;2763584;85;21041;-94
2022/06/23 00:29:11;;;;;;;7.50;4.72;;;;;;;15.97;77.14;99894.08;2765483;84;21599;-93
2022/06/23 00:33:39;;;;;;;9.08;4.97;;;;;;;15.95;77.17;99891.25;2751428;85;21079;-91
2022/06/23 00:37:50;;;;;;;4.40;3.00;;;;;;;15.91;77.00;99891.23;2753830;85;21107;-93
2022/06/23 00:41:52;;;;;;;5.33;3.12;;;;;;;15.92;77.20;99892.94;2778362;84;21083;-92
2022/06/23 00:46:09;;;;;;;6.62;4.33;;;;;;;15.75;77.81;99898.29;2784275;85;21059;-93
2022/06/23 00:50:19;;;;;;;6.20;3.37;;;;;;;15.60;78.45;99905.33;2783362;84;21079;-94
2022/06/23 00:54:32;;;;;;;6.05;4.22;;;;;;;15.55;78.64;99919.23;2760181;85;21083;-95
2022/06/23 00:58:56;;;;;;;5.10;3.40;;;;;;;15.47;78.92;99918.72;2753004;85;21060;-94
2022/06/23 01:03:06;;;;;;;4.33;3.60;;;;;;;15.42;79.21;99922.41;2707832;85;21064;-92
2022/06/23 01:07:48;;;;;;;4.92;4.45;;;;;;;15.37;80.00;99926.10;2758172;85;21568;-95
2022/06/23 01:12:00;;;;;;;9.40;5.45;;;;;;;15.35;80.04;99930.80;2708348;85;21044;-92
2022/06/23 01:16:19;;;;;;;8.73;4.65;;;;;;;15.36;79.86;99930.61;2700826;86;21079;-93
2022/06/23 01:20:46;;;;;;;5.35;4.85;;;;;;;15.34;79.68;99931.28;2699043;85;21092;-91
2022/06/23 01:25:07;;;;;;;8.50;3.98;;;;;;;15.35;79.79;99934.30;2679624;86;21075;-93
2022/06/23 01:29:44;;;;;;;7.50;4.90;;;;;;;15.28;79.96;99938.66;2598845;89;21569;-95
2022/06/23 01:33:50;;;;;;;4.80;3.95;;;;;;;15.22;80.04;99929.42;2585252;89;21153;-92
2022/06/23 01:37:56;;;;;;;6.20;4.03;;;;;;;15.17;79.63;99935.78;2614874;89;21172;-92
2022/06/23 01:42:06;;;;;;;5.55;4.47;;;;;;;15.22;79.08;99936.61;2580117;89;21131;-94
2022/06/23 01:46:23;;;;;;;7.22;4.75;;;;;;;15.23;78.82;99937.80;2658903;88;21061;-89
2022/06/23 01:50:43;;;;;;;5.60;3.65;;;;;;;15.23;78.68;99933.78;2670033;87;21039;-93
2022/06/23 01:54:50;;;;;;;5.35;4.05;;;;;;;15.25;78.52;99937.12;2645320;88;21438;-93
2022/06/23 01:59:15;;;;;;;5.15;4.47;;;;;;;15.22;78.46;99945.50;2638747;88;21151;-95
2022/06/23 02:03:21;;;;;;;6.95;4.97;;;;;;;15.21;78.71;99956.37;2664110;87;21512;-95
2022/06/23 02:07:42;;;;;;;6.17;5.12;;;;;;;15.09;79.51;99962.54;2687166;86;21102;-96
2022/06/23 02:11:48;;;;;;;7.30;5.33;;;;;;;14.99;79.87;99953.30;2705909;86;21067;-95
2022/06/23 02:15:56;;;;;;;;;;;;;;;14.96;80.15;99957.66;2710398;86;21094;-91
2022/06/23 02:20:18;;;;;;;6.28;5.65;;;;;;;14.96;80.14;99958.50;2686784;86;20144;-90
2022/06/23 02:24:48;;;;;;;5.53;4.97;;;;;;;14.89;79.56;99956.64;2694520;86;21123;-91
2022/06/23 02:29:19;;;;;;;6.47;4.37;;;;;;;14.79;80.14;99958.10;2709362;85;21095;-93
2022/06/23 02:33:35;;;;;;;11.03;5.67;;;;;;;14.79;80.66;99964.80;2718170;87;21437;-94
2022/06/23 02:38:05;;;;;;;5.67;4.50;;;;;;;14.71;80.81;99974.45;2719477;85;21047;-90
2022/06/23 02:42:18;;;;;;;7.05;5.78;;;;;;;14.66;80.89;99974.07;2698505;87;21065;-96
2022/06/23 02:46:40;;;;;;;6.55;5.28;;;;;;;14.64;81.41;99976.08;2730736;86;21067;-93
2022/06/23 02:50:49;;;;;;;5.33;4.80;;;;;;;14.66;82.16;99980.77;2717761;85;21070;-90
2022/06/23 02:55:11;;;;;;;9.73;5.87;;;;;;;14.73;81.57;99989.03;2724047;85;21012;-94
2022/06/23 02:59:27;;;;;;;8.98;5.75;;;;;;;14.76;81.79;99991.90;2726713;85;21529;-92
2022/06/23 03:12:27;;;;;;;10.32;4.87;;;;;;;14.77;82.67;99996.25;2664772;87;21072;-58
2022/06/23 03:16:34;;;;;;;8.60;5.47;;;;;;;14.81;83.12;99996.27;2670425;87;21322;-63
2022/06/23 03:20:49;;;;;;;11.50;7.12;;;;;;;14.87;83.25;100002.82;2672364;87;21326;-59
2022/06/23 03:25:08;;;;;;;6.33;4.85;;;;;;;14.91;82.69;100005.00;2663192;89;21083;-59
2022/06/23 03:29:32;;;;;;;14.35;6.83;;;;;;;15.01;82.07;100012.08;2632308;90;20993;-58
2022/06/23 03:33:51;;;;;;;7.97;6.15;;;;;;;15.14;81.75;100017.83;2661500;87;21049;-59
2022/06/23 03:38:04;;;;;;;9.08;6.37;;;;;;;15.39;81.40;100028.09;2655172;87;21477;-61
2022/06/23 03:42:29;;;;;;;7.45;4.90;;;;;;;15.54;80.73;100028.80;2663821;86;20978;-57
2022/06/23 03:46:47;;;;;;;10.23;5.28;;;;;;;15.63;80.07;100038.55;2658905;89;21087;-57
2022/06/23 03:51:12;;;;;;;5.28;4.60;;;;;;;15.63;79.68;100035.02;2660834;89;21052;-58
2022/06/23 03:55:24;;;;;;;9.23;6.78;;;;;;;15.68;79.88;100034.01;2674173;88;21064;-61
2022/06/23 03:59:36;;;;;;;7.25;5.60;;;;;;;15.93;79.93;100042.13;2648377;88;21111;-59
2022/06/23 04:03:50;;;;;;;6.10;5.00;;;;;;;15.96;79.75;100038.59;2639505;89;21048;-59
2022/06/23 04:20:30;;;;;;;16.60;9.63;;;;;;;17.30;79.47;100033.79;3002072;77;22840;-93
2022/06/23 04:24:35;;;;;;;7.55;6.35;;;;;;;17.97;79.00;100033.67;2963204;79;21123;-94
2022/06/23 04:28:50;;;;;;;24.60;5.83;;;;;;;19.19;76.99;100041.73;2964449;78;21118;-94
2022/06/23 04:32:53;;;;;;;6.50;5.80;;;;;;;20.50;73.52;100047.98;2947254;79;21012;-92
2022/06/23 04:36:56;;;;;;;14.35;6.92;;;;;;;21.82;69.31;100046.63;2958637;79;21101;-94
2022/06/23 04:41:20;;;;;;;5.67;4.53;;;;;;;23.00;66.30;100045.29;2955111;79;21011;-94
2022/06/23 04:45:27;;;;;;;10.45;5.17;;;;;;;24.04;63.50;100041.09;2954842;78;21050;-95
2022/06/23 04:49:43;;;;;;;8.03;4.80;;;;;;;24.72;58.92;100047.26;2950873;79;20996;-94
2022/06/23 04:54:02;;;;;;;10.45;4.50;;;;;;;24.93;57.05;100051.46;2946228;79;21000;-92
2022/06/23 04:58:21;;;;;;;16.80;6.30;;;;;;;25.60;57.04;100050.63;2972541;79;21074;-93
2022/06/23 05:02:37;;;;;;;9.40;5.35;;;;;;;26.40;54.88;100046.89;2959652;79;20988;-92
2022/06/23 05:06:43;;;;;;;4.05;3.75;;;;;;;27.08;53.38;100058.21;2953563;79;21026;-92
2022/06/23 05:10:54;;;;;;;6.03;4.15;;;;;;;27.79;51.70;100051.13;2965973;79;21023;-95
2022/06/23 05:15:01;;;;;;;4.62;3.60;;;;;;;28.21;50.85;100049.09;2959183;79;20988;-92
2022/06/23 05:19:23;;;;;;;6.87;3.92;;;;;;;28.47;50.28;100048.95;2904680;79;21055;-90
2022/06/23 05:23:33;;;;;;;5.37;3.87;;;;;;;28.68;48.99;100060.19;2839573;80;21071;-95
2022/06/23 05:27:35;;;;;;;10.20;3.60;;;;;;;29.06;48.79;100061.78;2885985;80;21028;-93
2022/06/23 05:31:39;;;;;;;3.10;2.62;;;;;;;29.38;48.43;100053.39;2879344;81;21040;-94
2022/06/23 05:35:46;;;;;;;6.77;3.80;;;;;;;29.57;47.21;100054.72;2879216;81;21004;-93
2022/06/23 05:40:43;;;;;;;5.78;3.35;;;;;;;30.04;46.49;100065.59;2860839;81;21158;-92
2022/06/23 05:44:58;;;;;;;4.72;4.33;;;;;;;29.97;47.18;100034.80;2876946;81;21091;-94
2022/06/23 05:49:19;;;;;;;14.30;3.08;;;;;;;30.84;45.17;100063.94;2873324;81;21008;-92
2022/06/23 05:53:37;;;;;;;4.28;2.77;;;;;;;30.91;43.78;100063.70;2875058;82;21059;-92
2022/06/23 05:58:06;;;;;;;10.20;2.80;;;;;;;30.71;44.78;100066.63;2806071;84;21086;-93
2022/06/23 06:02:16;;;;;;;6.50;2.72;;;;;;;30.64;44.83;100072.34;2790605;83;21510;-91
2022/06/23 06:06:17;;;;;;;11.57;3.33;;;;;;;30.17;45.90;100071.73;2904388;81;21217;-85
2022/06/23 06:10:23;;;;;;;5.60;2.02;;;;;;;30.08;46.81;100073.31;2864463;81;21605;-90
2022/06/23 06:14:32;;;;;;;6.58;2.10;;;;;;;30.43;45.92;100067.80;2844513;82;21130;-85
2022/06/23 06:18:41;;;;;;;3.50;2.20;;;;;;;31.02;45.26;100075.02;2932946;79;20960;-85
2022/06/23 06:23:12;;;;;;;5.10;2.40;;;;;;;31.37;44.37;100080.13;2981849;79;21023;-85
2022/06/23 06:27:16;;;;;;;5.05;2.95;;;;;;;31.60;42.96;100081.00;2985359;78;21034;-91
2022/06/23 06:31:33;;;;;;;8.30;3.55;;;;;;;31.88;43.25;100083.55;2976241;79;20985;-91
2022/06/23 06:35:46;;;;;;;5.72;2.65;;;;;;;32.01;43.07;100075.30;2931583;79;21033;-86
2022/06/23 06:39:53;;;;;;;4.70;1.70;;;;;;;32.01;42.83;100082.98;2867834;80;70508;-58
2022/06/23 06:43:57;;;;;;;67.60;10.58;;;;;;;31.59;43.10;100087.59;2786016;85;20984;-59
2022/06/23 06:48:18;;;;;;;3.10;1.85;;;;;;;31.65;43.63;100087.06;2786822;85;21252;-59
2022/06/23 06:52:20;;;;;;;5.03;4.60;;;;;;;31.85;43.60;100088.22;2774126;84;21008;-60
2022/06/23 06:56:44;;;;;;;2.60;2.10;;;;;;;32.05;42.33;100095.11;2786396;85;21055;-61
2022/06/23 07:00:54;;;;;;;7.65;3.37;;;;;;;31.57;41.87;100092.55;2750889;85;21004;-60
2022/06/23 07:05:34;;;;;;;4.97;3.75;;;;;;;31.57;41.89;100091.70;2741046;87;21078;-59
2022/06/23 07:09:41;;;;;;;3.25;1.67;;;;;;;31.36;42.15;100093.59;2776994;85;20999;-60
2022/06/23 07:14:12;;;;;;;2.12;1.75;;;;;;;31.43;42.46;100101.83;2775461;85;21062;-62
2022/06/23 07:18:33;;;;;;;3.20;1.65;;;;;;;31.31;42.30;100106.75;2763542;84;21022;-60
2022/06/23 07:22:51;;;;;;;3.72;1.40;;;;;;;31.62;42.10;100097.20;2756199;85;20979;-62
2022/06/23 07:27:03;;;;;;;6.70;1.95;;;;;;;31.88;41.89;100107.73;2712261;86;21130;-60
2022/06/23 07:31:28;;;;;;;4.10;1.65;;;;;;;32.07;42.01;100116.02;2600218;90;21022;-60
2022/06/23 07:35:55;;;;;;;2.33;1.60;;;;;;;31.91;40.34;100120.11;2567076;92;21053;-60
2022/06/23 07:40:04;;;;;;;1.57;1.40;;;;;;;31.91;41.15;100118.74;2613807;89;21137;-61
2022/06/23 07:44:38;;;;;;;1.70;1.25;;;;;;;32.18;40.63;100115.73;2624668;89;21042;-60
2022/06/23 07:48:39;;;;;;;7.53;1.90;;;;;;;32.23;39.01;100116.30;2618160;90;21097;-61
2022/06/23 07:52:44;;;;;;;4.33;1.57;;;;;;;32.57;39.38;100112.97;2628942;89;21004;-63
2022/06/23 07:56:46;;;;;;;;;;;;;;;32.80;39.40;100112.66;2644030;89;20984;-59
2022/06/23 08:00:52;;;;;;;15.63;3.62;;;;;;;32.90;37.20;100110.72;2661271;89;20134;-59
2022/06/23 08:05:03;;;;;;;5.10;1.42;;;;;;;33.08;38.33;100108.46;2663656;88;21255;-62
2022/06/23 08:09:19;;;;;;;1.20;0.75;;;;;;;33.29;37.88;100110.55;2782360;83;20988;-62
2022/06/23 08:13:27;;;;;;;2.85;0.93;;;;;;;33.44;38.26;100115.22;2795588;84;21008;-61
2022/06/23 08:17:28;;;;;;;2.27;0.90;;;;;;;33.83;37.01;100120.48;2779576;85;21011;-61
2022/06/23 08:21:37;;;;;;;2.05;0.88;;;;;;;34.05;35.65;100110.97;2713201;85;21081;-60
2022/06/23 08:25:40;;;;;;;2.35;0.78;;;;;;;33.78;35.93;100114.17;2790985;84;21048;-62
2022/06/23 08:29:53;;;;;;;2.83;0.93;;;;;;;33.76;35.13;100106.20;2762577;84;21072;-61
2022/06/23 08:33:57;;;;;;;2.75;1.30;;;;;;;33.78;34.55;100105.36;2790951;84;21012;-64
2022/06/23 08:51:38;;;;;;;11.30;2.65;;;;;;;33.64;34.37;100102.42;2746854;83;21107;-61
2022/06/23 08:55:56;;;;;;;2.00;0.88;;;;;;;33.42;33.99;100102.25;2741169;86;21035;-61
2022/06/23 09:05:45;;;;;;;2.52;0.88;;;;;;;33.11;35.54;100091.36;2734995;83;21028;-61
2022/06/23 09:10:18;;;;;;;10.10;1.70;;;;;;;32.99;35.03;100086.72;2726554;83;21004;-62
2022/06/23 09:14:58;;;;;;;4.17;1.57;;;;;;;32.83;35.18;100089.52;2728689;86;21072;-62
2022/06/23 09:19:43;;;;;;;4.30;1.00;;;;;;;32.72;35.54;100092.02;2746059;85;20980;-62
2022/06/23 09:24:29;;;;;;;1.57;1.00;;;;;;;32.76;33.65;100086.22;2747969;83;21067;-60
2022/06/23 09:29:24;;;;;;;8.15;1.65;;;;;;;32.68;34.02;100084.05;2748201;83;20968;-61
2022/06/23 09:33:43;;;;;;;3.85;1.12;;;;;;;32.54;35.17;100084.63;2748359;82;20997;-63
2022/06/23 09:47:21;;;;;;;7.45;4.60;;;;;;;32.55;36.65;100072.51;2702792;86;21164;-90
2022/06/23 09:51:40;;;;;;;2.75;1.00;;;;;;;32.57;36.49;100081.31;2701072;86;22579;-87
2022/06/23 09:56:05;;;;;;;3.30;1.72;;;;;;;32.55;37.68;100090.97;2710319;80;70639;-61
2022/06/23 10:00:29;;;;;;;3.60;1.52;;;;;;;32.64;35.46;100082.97;2696325;87;21020;-61
2022/06/23 10:05:05;;;;;;;2.77;1.57;;;;;;;32.92;35.24;100081.54;2627862;89;21004;-61
2022/06/23 10:09:40;;;;;;;2.45;0.78;;;;;;;32.69;34.45;100081.57;2590201;89;21102;-61
2022/06/23 10:14:19;;;;;;;2.33;1.20;;;;;;;32.41;35.28;100075.55;2579305;89;21075;-60
2022/06/23 10:23:43;;;;;;;0.70;0.65;;;;;;;32.08;34.92;100085.46;2540932;92;21092;-63
2022/06/23 10:28:15;;;;;;;6.70;1.05;;;;;;;32.01;34.92;100076.67;2549853;90;21071;-62
2022/06/23 10:32:41;;;;;;;3.17;1.67;;;;;;;31.98;35.14;100081.34;2602182;90;21077;-63
2022/06/23 10:37:03;;;;;;;16.37;1.65;;;;;;;31.91;36.08;100074.17;2582362;89;21110;-60
2022/06/23 10:41:41;;;;;;;5.33;1.02;;;;;;;31.95;35.75;100068.16;2628240;88;21074;-60
2022/06/23 10:45:50;;;;;;;8.40;3.20;;;;;;;32.06;34.90;100073.91;2693414;88;21052;-61
2022/06/23 10:50:08;;;;;;;2.33;1.12;;;;;;;32.09;36.03;100071.98;2687890;87;21017;-61
2022/06/23 10:54:45;;;;;;;4.55;1.25;;;;;;;32.27;36.74;100065.64;2686706;85;21071;-64
2022/06/23 10:59:03;;;;;;;7.95;1.55;;;;;;;32.45;35.51;100061.53;2638757;88;20987;-62
2022/06/23 11:03:27;;;;;;;4.08;2.02;;;;;;;32.34;34.45;100060.16;2707207;83;69840;-87
2022/06/23 11:07:58;;;;;;;0.85;0.80;;;;;;;32.22;34.95;100067.03;2714678;84;21034;-93
2022/06/23 11:12:16;;;;;;;2.00;1.15;;;;;;;32.04;34.39;100065.95;2710809;86;21024;-86
2022/06/23 11:16:32;;;;;;;2.45;1.15;;;;;;;31.81;34.22;100080.22;2634266;89;21380;-91
2022/06/23 11:20:59;;;;;;;5.30;1.35;;;;;;;31.66;34.67;100062.59;2691220;88;21131;-86
2022/06/23 11:25:38;;;;;;;1.95;1.42;;;;;;;31.60;34.64;100052.67;2690832;86;21087;-89
2022/06/23 11:30:22;;;;;;;3.33;1.87;;;;;;;31.84;35.73;100043.95;2690481;87;21016;-85
2022/06/23 11:34:41;;;;;;;1.47;1.35;;;;;;;32.03;35.92;100039.55;2690692;85;21076;-89
2022/06/23 11:39:15;;;;;;;2.35;1.07;;;;;;;32.05;35.60;100044.22;2690379;87;21040;-89
2022/06/23 11:43:26;;;;;;;4.70;1.40;;;;;;;32.16;36.75;100048.33;2690321;87;21052;-87
2022/06/23 11:52:32;;;;;;;2.42;0.75;;;;;;;32.13;35.84;100045.59;2551559;87;21154;-61
2022/06/23 12:01:04;;;;;;;3.55;2.70;;;;;;;31.95;35.09;100045.59;2679021;87;21554;-88
2022/06/23 12:05:14;;;;;;;63.90;14.58;;;;;;;31.87;36.32;100046.95;2679651;86;20993;-89
2022/06/23 12:09:41;;;;;;;2.55;2.05;;;;;;;31.48;36.44;100052.40;2669702;88;21099;-91
2022/06/23 12:13:43;;;;;;;5.87;1.47;;;;;;;31.43;36.39;100044.69;2672485;88;21052;-94
2022/06/23 12:17:50;;;;;;;2.00;1.45;;;;;;;31.51;36.66;100038.64;2680558;88;21012;-93
2022/06/23 12:22:05;;;;;;;2.30;1.65;;;;;;;31.75;36.92;100035.39;2678766;87;21092;-91
2022/06/23 12:26:24;;;;;;;3.33;1.77;;;;;;;32.07;36.88;100034.87;2774618;84;21034;-93
2022/06/23 12:30:29;;;;;;;2.15;1.10;;;;;;;32.30;35.99;100034.28;2812868;84;21112;-88
2022/06/23 12:34:45;;;;;;;2.08;1.05;;;;;;;32.54;36.96;100024.63;2813675;83;21049;-89
2022/06/23 12:38:55;;;;;;;2.60;1.30;;;;;;;32.60;35.82;100031.77;2813303;83;21069;-89
2022/06/23 12:43:02;;;;;;;2.33;1.45;;;;;;;32.40;35.98;100032.63;2812523;84;21636;-90
2022/06/23 12:47:30;;;;;;;3.92;1.32;;;;;;;32.46;35.93;100033.72;2806030;84;21627;-91
2022/06/23 12:51:54;;;;;;;12.65;1.45;;;;;;;32.50;36.55;100027.11;2806320;84;21187;-88
2022/06/23 12:56:13;;;;;;;2.83;0.72;;;;;;;32.82;37.17;100027.83;2805746;84;21036;-92
2022/06/23 13:00:26;;;;;;;3.12;1.70;;;;;;;32.88;36.01;100022.56;2796492;83;21510;-87
2022/06/23 13:04:40;;;;;;;1.85;0.85;;;;;;;33.01;36.31;100023.91;2794178;82;21028;-88
2022/06/23 13:47:10;;;;;;;1.92;0.95;;;;;;;32.83;37.16;100000.02;2769075;80;70892;-90
2022/06/23 13:51:20;;;;;;;13.80;3.15;;;;;;;32.85;35.73;99999.18;2773861;85;21029;-87
2022/06/23 13:55:27;;;;;;;2.42;1.07;;;;;;;32.65;35.69;99994.58;2703414;86;21023;-94
2022/06/23 13:59:54;;;;;;;18.67;3.72;;;;;;;32.67;35.18;99988.23;2685913;85;21100;-91
2022/06/23 14:04:25;;;;;;;2.95;1.22;;;;;;;32.74;35.17;99989.31;2775661;84;20977;-93
2022/06/23 14:08:59;;;;;;;2.05;1.40;;;;;;;32.58;36.07;99986.61;2667688;87;21388;-90
2022/06/23 14:13:36;;;;;;;1.80;0.95;;;;;;;32.59;35.25;99989.62;2677087;87;21062;-93
2022/06/23 14:17:55;;;;;;;2.55;1.70;;;;;;;32.41;36.72;99984.20;2670953;87;21151;-92
2022/06/23 14:22:22;;;;;;;2.35;1.87;;;;;;;32.19;36.66;99984.48;2596629;89;21475;-86
2022/06/23 14:26:41;;;;;;;2.65;1.57;;;;;;;32.22;36.03;99977.05;2575036;89;21045;-93
2022/06/23 14:30:48;;;;;;;1.40;0.68;;;;;;;32.16;36.21;99980.92;2584882;91;21098;-91
2022/06/23 14:34:58;;;;;;;1.42;1.02;;;;;;;32.14;36.33;99974.88;2603602;88;21157;-92
2022/06/23 14:39:40;;;;;;;2.90;1.15;;;;;;;32.28;36.01;99978.70;2583196;91;21087;-93
2022/06/23 14:43:49;;;;;;;3.62;1.40;;;;;;;32.12;36.11;99961.96;2641454;87;21069;-93
2022/06/23 14:48:16;;;;;;;2.80;1.67;;;;;;;31.90;36.56;99976.28;2697829;87;21547;-92
2022/06/23 14:52:35;;;;;;;4.08;1.40;;;;;;;31.96;36.65;99970.80;2774765;85;21070;-92
2022/06/23 14:56:48;;;;;;;2.95;1.70;;;;;;;31.97;36.13;99959.50;2769885;85;20991;-93
2022/06/23 15:00:57;;;;;;;1.30;1.02;;;;;;;31.89;35.99;99951.27;2733262;85;21625;-90
2022/06/23 15:05:10;;;;;;;2.60;1.20;;;;;;;31.98;35.60;99955.65;2775495;85;21078;-91
2022/06/23 15:09:40;;;;;;;2.37;1.30;;;;;;;32.00;36.35;99961.69;2752537;85;21067;-91
2022/06/23 15:14:05;;;;;;;4.95;1.17;;;;;;;31.87;36.34;99950.72;2770324;85;20991;-89
2022/06/23 15:18:18;;;;;;;1.65;1.12;;;;;;;31.90;36.85;99954.85;2708681;87;21051;-95
2022/06/23 15:27:26;;;;;;;3.22;1.07;;;;;;;31.91;36.70;99951.00;2775434;84;21054;-92
2022/06/23 15:31:42;;;;;;;2.85;1.45;;;;;;;31.80;36.23;99946.59;2806319;84;21039;-92
2022/06/23 15:35:55;;;;;;;3.17;1.60;;;;;;;31.81;36.23;99944.12;2796298;83;20996;-93
2022/06/23 15:40:17;;;;;;;2.95;1.40;;;;;;;31.79;37.10;99949.08;2801916;83;21017;-93
2022/06/23 15:44:40;;;;;;;3.75;0.95;;;;;;;31.61;36.90;99949.34;2753697;84;21060;-90
2022/06/23 15:49:08;;;;;;;1.90;1.50;;;;;;;31.65;37.04;99941.91;2787539;84;21029;-93
2022/06/23 15:53:26;;;;;;;2.22;1.55;;;;;;;31.51;37.62;99938.90;2827383;84;21008;-91
2022/06/23 15:57:42;;;;;;;1.65;1.37;;;;;;;31.29;37.71;99945.48;2756351;85;22859;-93
2022/06/23 16:02:03;;;;;;;13.85;3.80;;;;;;;31.22;37.90;99949.03;2786927;84;21031;-92
2022/06/23 16:06:25;;;;;;;2.33;1.47;;;;;;;31.18;37.58;99952.86;2810071;84;21114;-93
2022/06/23 16:10:37;;;;;;;6.58;1.17;;;;;;;31.19;38.15;99951.19;2785534;84;21028;-93
2022/06/23 16:14:57;;;;;;;3.12;1.45;;;;;;;31.27;36.98;99947.12;2785617;84;21044;-91
2022/06/23 16:19:04;;;;;;;1.50;1.17;;;;;;;31.20;37.25;99943.26;2784011;84;20969;-92
2022/06/23 16:23:17;;;;;;;1.20;1.10;;;;;;;30.98;38.15;99944.02;2810733;84;21067;-93
2022/06/23 16:27:55;;;;;;;1.92;1.20;;;;;;;30.88;36.96;99947.02;2790275;84;21045;-93
2022/06/23 16:32:17;;;;;;;4.60;1.98;;;;;;;30.92;37.32;99952.78;2790807;83;21007;-94
2022/06/23 16:36:28;;;;;;;2.50;1.70;;;;;;;30.73;37.93;99955.20;2800070;84;21039;-93
2022/06/23 16:40:41;;;;;;;2.67;1.52;;;;;;;30.60;38.06;99949.64;2786254;83;20989;-87
2022/06/23 16:44:50;;;;;;;2.90;1.98;;;;;;;30.54;37.58;99948.78;2791467;83;20989;-94
2022/06/23 16:49:06;;;;;;;3.65;1.87;;;;;;;30.38;38.74;99956.13;2778510;84;21016;-94
2022/06/23 16:53:31;;;;;;;3.62;2.30;;;;;;;30.27;38.77;99950.30;2801542;84;21005;-92
2022/06/23 16:57:44;;;;;;;4.22;1.17;;;;;;;30.02;38.64;99953.98;2777529;84;21080;-92
2022/06/23 17:02:00;;;;;;;1.87;1.65;;;;;;;29.81;39.30;99954.38;2781005;84;21063;-93
2022/06/23 17:06:06;;;;;;;5.00;1.65;;;;;;;29.53;39.51;99950.03;2791985;83;21032;-91
2022/06/23 17:10:28;;;;;;;18.48;3.20;;;;;;;29.34;39.82;99956.67;2809662;84;20989;-89
2022/06/23 17:14:40;;;;;;;3.65;1.10;;;;;;;29.21;39.97;99962.58;2761355;84;21100;-94
2022/06/23 17:18:47;;;;;;;3.98;1.50;;;;;;;29.14;40.79;99961.42;2774829;84;21008;-94
2022/06/23 17:22:52;;;;;;;2.40;1.20;;;;;;;29.07;40.38;99957.51;2797253;84;21003;-90
2022/06/23 17:27:48;;;;;;;1.70;1.20;;;;;;;28.88;40.62;99959.75;2802454;84;21072;-89
2022/06/23 17:32:03;;;;;;;14.18;1.30;;;;;;;28.81;40.53;99949.55;2803842;84;21039;-89
2022/06/23 17:36:21;;;;;;;1.98;1.50;;;;;;;28.75;40.46;99965.05;2811616;84;22234;-92
2022/06/23 17:45:13;;;;;;;3.25;1.52;;;;;;;28.55;41.46;99967.00;2811060;84;21021;-91
2022/06/23 17:49:32;;;;;;;19.90;1.72;;;;;;;28.41;41.85;99965.70;2754887;84;21017;-92
2022/06/23 17:53:35;;;;;;;3.10;1.87;;;;;;;28.35;41.93;99971.11;2704626;86;21107;-86
2022/06/23 17:57:39;;;;;;;5.30;2.00;;;;;;;28.20;42.74;99973.62;2694679;86;21321;-91
2022/06/23 18:01:58;;;;;;;3.47;1.82;;;;;;;28.05;43.46;99977.75;2738234;84;20978;-88
2022/06/23 18:06:16;;;;;;;4.05;1.67;;;;;;;27.88;43.76;99976.41;2760000;84;21057;-92
2022/06/23 18:10:29;;;;;;;2.02;1.77;;;;;;;27.75;43.69;99976.20;2756454;84;21095;-94
2022/06/23 18:15:08;;;;;;;24.67;4.37;;;;;;;27.55;44.13;99979.95;2703816;86;21064;-92
2022/06/23 18:19:21;;;;;;;4.95;1.67;;;;;;;27.24;44.70;99963.81;2753854;83;21032;-91
2022/06/23 18:23:45;;;;;;;7.40;1.82;;;;;;;26.96;45.08;99959.19;2760116;84;21041;-92
2022/06/23 18:28:10;;;;;;;4.50;1.23;;;;;;;26.93;45.22;99991.88;2730735;86;21039;-94
2022/06/23 18:32:23;;;;;;;6.10;2.22;;;;;;;26.75;45.84;99986.84;2748924;84;21056;-92
2022/06/23 18:36:46;;;;;;;3.12;2.20;;;;;;;26.50;46.33;99992.05;2753489;85;21021;-93
2022/06/23 18:41:10;;;;;;;5.92;1.80;;;;;;;26.26;46.72;99985.78;2747148;84;21052;-92
2022/06/23 18:45:25;;;;;;;4.15;2.35;;;;;;;26.06;47.33;99994.30;2767722;84;21016;-88
2022/06/23 18:49:40;;;;;;;3.12;1.52;;;;;;;25.75;47.92;99995.74;2775943;84;21698;-93
2022/06/23 18:53:49;;;;;;;5.08;1.77;;;;;;;25.55;48.39;99986.50;2772008;84;21099;-94
2022/06/23 18:57:50;;;;;;;4.28;1.77;;;;;;;25.32;48.93;99998.11;2771080;84;21071;-94
2022/06/23 19:02:03;;;;;;;2.62;1.52;;;;;;;25.11;49.34;100002.99;2792369;84;21076;-93
2022/06/23 19:06:18;;;;;;;3.08;1.87;;;;;;;24.91;49.79;100005.98;2769965;84;21022;-93
2022/06/23 19:10:52;;;;;;;57.15;8.85;;;;;;;24.75;50.07;100010.97;2747707;84;21047;-93
2022/06/23 19:15:11;;;;;;;8.63;3.65;;;;;;;24.53;50.84;100013.25;2795916;84;21067;-88
2022/06/23 19:19:27;;;;;;;4.92;3.05;;;;;;;24.25;51.37;100020.84;2778901;84;21514;-91
2022/06/23 19:23:55;;;;;;;26.40;5.53;;;;;;;24.04;51.79;100022.59;2801449;83;21548;-93
2022/06/23 19:28:08;;;;;;;21.95;5.22;;;;;;;23.84;52.31;100024.91;2799979;84;21012;-94
2022/06/23 19:32:38;;;;;;;10.58;1.82;;;;;;;23.64;52.88;100025.06;2728980;86;21090;-92
2022/06/23 19:36:44;;;;;;;6.10;2.22;;;;;;;23.44;53.47;100024.66;2686094;86;21214;-94
2022/06/23 19:40:51;;;;;;;3.25;2.58;;;;;;;23.26;54.30;100028.08;2721158;86;21071;-93
2022/06/23 19:45:14;;;;;;;2.83;2.58;;;;;;;23.09;54.91;100029.92;2683760;87;21068;-91
2022/06/23 19:49:17;;;;;;;2.60;1.77;;;;;;;22.89;55.91;100033.20;2697810;87;21095;-91
2022/06/23 19:53:35;;;;;;;4.35;1.98;;;;;;;22.74;56.19;100025.32;2710190;87;21044;-93
2022/06/23 19:58:11;;;;;;;2.35;2.05;;;;;;;22.63;56.73;100035.80;2705473;87;21144;-92
2022/06/23 20:02:35;;;;;;;4.47;2.80;;;;;;;22.42;57.63;100035.47;2719355;87;21395;-93
2022/06/23 20:06:48;;;;;;;4.30;3.90;;;;;;;22.13;58.46;100029.45;2718457;86;21054;-92
2022/06/23 20:11:19;;;;;;;11.53;6.75;;;;;;;21.98;58.92;100043.18;2730039;86;21010;-93
2022/06/23 20:15:26;;;;;;;3.87;3.47;;;;;;;21.79;59.90;100042.13;2750182;85;21008;-93
2022/06/23 20:19:36;;;;;;;4.95;4.12;;;;;;;21.62;60.57;100047.08;2748007;85;20997;-90
2022/06/23 20:24:03;;;;;;;5.40;4.00;;;;;;;21.50;61.14;100043.60;2707910;86;21106;-90
2022/06/23 20:28:30;;;;;;;5.65;3.15;;;;;;;21.45;61.05;100044.74;2692150;86;21053;-91
2022/06/23 20:32:48;;;;;;;25.10;6.05;;;;;;;21.44;60.98;100044.93;2680578;88;21091;-89
2022/06/23 20:37:13;;;;;;;11.43;4.85;;;;;;;21.35;61.19;100041.58;2681321;87;21161;-91
2022/06/23 20:41:23;;;;;;;6.33;3.40;;;;;;;21.22;61.91;100042.36;2708966;87;21060;-89
2022/06/23 20:46:15;;;;;;;70.42;12.63;;;;;;;21.09;61.68;100048.55;2678550;87;21243;-91
2022/06/23 20:50:37;;;;;;;49.85;12.18;;;;;;;21.01;62.27;100047.36;2607508;89;21083;-88
2022/06/23 20:54:52;;;;;;;33.18;23.62;;;;;;;20.87;62.28;100053.22;2612893;89;21126;-90
2022/06/23 20:59:08;;;;;;;24.18;17.92;;;;;;;20.76;62.71;100061.34;2609073;89;21614;-93
2022/06/23 21:03:21;;;;;;;11.30;5.87;;;;;;;20.69;62.47;100066.70;2539507;91;21119;-93
2022/06/23 21:12:28;;;;;;;13.32;5.25;;;;;;;20.50;63.31;100066.36;2602819;89;22047;-87
2022/06/23 21:16:50;;;;;;;12.78;9.13;;;;;;;20.42;63.47;100058.42;2627125;88;21154;-88
2022/06/23 21:21:24;;;;;;;10.25;6.70;;;;;;;20.27;63.93;100058.52;2614439;89;21163;-87
2022/06/23 21:25:36;;;;;;;6.65;3.77;;;;;;;20.18;64.19;100059.17;2605051;88;21109;-88
2022/06/23 21:29:46;;;;;;;6.08;4.37;;;;;;;20.08;64.45;100054.10;2630925;86;21076;-88
2022/06/23 21:33:55;;;;;;;15.23;6.40;;;;;;;19.97;64.69;100052.77;2625247;87;21078;-88
2022/06/23 21:38:03;;;;;;;3.42;2.58;;;;;;;19.82;65.06;100046.03;2637407;88;21056;-87
2022/06/23 21:42:12;;;;;;;3.10;2.80;;;;;;;19.74;65.34;100045.31;2756242;85;21042;-88
2022/06/23 21:46:28;;;;;;;5.50;5.00;;;;;;;19.63;65.15;100046.16;2760012;85;21042;-86
2022/06/23 21:50:38;;;;;;;3.45;2.92;;;;;;;19.58;65.20;100050.45;2762077;85;21117;-86
2022/06/23 21:55:01;;;;;;;2.72;2.52;;;;;;;19.56;65.13;100053.36;2761256;85;21065;-87
2022/06/23 21:59:07;;;;;;;4.92;3.20;;;;;;;19.57;64.95;100055.53;2765761;84;21086;-88